createdAt,value
2023-02-04T00:00:17.606Z,1.90
2023-02-04T00:02:44.495Z,2.08
2023-02-04T00:05:12.807Z,1.55
2023-02-04T00:07:41.486Z,1.40
2023-02-04T00:10:09.148Z,2.00
2023-02-04T00:12:36.706Z,2.13
2023-02-04T00:15:04.256Z,2.05
2023-02-04T00:17:31.083Z,1.60
2023-02-04T00:20:01.430Z,1.70
2023-02-04T00:22:31.482Z,1.67
2023-02-04T00:24:58.317Z,1.63
2023-02-04T00:27:25.077Z,1.70
2023-02-04T00:29:52.092Z,1.88
2023-02-04T00:32:19.124Z,1.80
2023-02-04T00:34:47.241Z,1.75
2023-02-04T00:37:15.162Z,2.13
2023-02-04T00:39:42.102Z,1.92
2023-02-04T00:42:09.007Z,1.67
2023-02-04T00:44:36.778Z,1.80
2023-02-04T00:47:04.165Z,2.10
2023-02-04T00:49:33.350Z,1.73
2023-02-04T00:52:00.455Z,1.73
2023-02-04T00:54:28.140Z,1.60
2023-02-04T00:56:54.992Z,1.70
2023-02-04T00:59:22.534Z,1.98
2023-02-04T01:01:51.795Z,1.77
2023-02-04T01:04:19.061Z,2.33
2023-02-04T01:06:45.975Z,2.13
2023-02-04T01:09:12.913Z,1.73
2023-02-04T01:11:41.010Z,2.08
2023-02-04T01:14:08.097Z,1.92
2023-02-04T01:16:35.266Z,1.90
2023-02-04T01:19:03.053Z,1.80
2023-02-04T01:21:30.334Z,2.17
2023-02-04T01:23:57.765Z,1.20
2023-02-04T01:26:25.883Z,2.33
2023-02-04T01:28:54.668Z,1.67
2023-02-04T01:31:22.203Z,1.90
2023-02-04T01:33:49.230Z,1.83
2023-02-04T01:36:22.139Z,1.98
2023-02-04T01:38:50.475Z,1.90
2023-02-04T01:41:19.007Z,2.17
2023-02-04T01:43:49.553Z,2.00
2023-02-04T01:46:17.889Z,1.08
2023-02-04T01:48:46.924Z,2.25
2023-02-04T01:51:17.191Z,1.67
2023-02-04T01:53:44.139Z,1.45
2023-02-04T01:56:27.708Z,1.50
2023-02-04T01:58:57.749Z,1.92
2023-02-04T02:01:49.268Z,1.58
2023-02-04T02:04:20.348Z,1.60
2023-02-04T02:06:51.760Z,1.70
2023-02-04T02:09:18.596Z,1.42
2023-02-04T02:11:47.642Z,1.23
2023-02-04T02:14:15.428Z,1.83
2023-02-04T02:16:42.672Z,1.73
2023-02-04T02:19:18.221Z,1.95
2023-02-04T02:21:56.617Z,1.25
2023-02-04T02:24:30.643Z,2.08
2023-02-04T02:27:04.229Z,1.70
2023-02-04T02:29:31.691Z,1.30
2023-02-04T02:31:59.892Z,1.58
2023-02-04T02:34:28.774Z,1.73
2023-02-04T02:36:58.153Z,2.00
2023-02-04T02:39:25.867Z,1.92
2023-02-04T02:41:53.316Z,1.52
2023-02-04T02:44:21.675Z,1.48
2023-02-04T02:46:49.062Z,1.80
2023-02-04T02:49:18.873Z,1.70
2023-02-04T02:51:48.847Z,1.50
2023-02-04T02:54:35.688Z,1.58
2023-02-04T02:57:13.743Z,1.40
2023-02-04T02:59:41.096Z,1.30
2023-02-04T03:02:10.211Z,1.33
2023-02-04T03:04:42.883Z,1.65
2023-02-04T03:07:14.491Z,1.83
2023-02-04T03:09:41.941Z,1.70
2023-02-04T03:12:09.036Z,2.30
2023-02-04T03:14:38.637Z,1.17
2023-02-04T03:17:09.075Z,1.45
2023-02-04T03:19:37.748Z,1.10
2023-02-04T03:22:06.146Z,1.58
2023-02-04T03:24:33.280Z,2.05
2023-02-04T03:27:00.433Z,1.20
2023-02-04T03:29:29.686Z,1.42
2023-02-04T03:32:00.421Z,1.38
2023-02-04T03:34:28.949Z,1.48
2023-02-04T03:36:56.104Z,1.50
2023-02-04T03:39:23.873Z,1.50
2023-02-04T03:41:50.906Z,2.65
2023-02-04T03:44:18.908Z,2.10
2023-02-04T03:46:46.075Z,1.55
2023-02-04T03:49:13.078Z,0.98
2023-02-04T03:51:40.235Z,0.77
2023-02-04T03:54:07.294Z,3.25
2023-02-04T03:56:38.214Z,1.17
2023-02-04T03:59:06.688Z,0.60
2023-02-04T04:01:34.851Z,0.88
2023-02-04T04:04:01.818Z,0.57
2023-02-04T04:06:28.762Z,0.70
2023-02-04T04:08:55.704Z,0.70
2023-02-04T04:11:22.656Z,0.70
2023-02-04T04:13:50.727Z,0.60
2023-02-04T04:16:18.254Z,0.70
2023-02-04T04:18:45.329Z,0.88
2023-02-04T04:21:12.799Z,0.70
2023-02-04T04:23:41.887Z,0.70
2023-02-04T04:26:08.932Z,0.60
2023-02-04T04:28:38.024Z,0.70
2023-02-04T04:31:05.296Z,0.80
2023-02-04T04:33:32.426Z,0.95
2023-02-04T04:35:59.599Z,0.90
2023-02-04T04:38:27.643Z,0.80
2023-02-04T04:40:55.091Z,1.00
2023-02-04T04:43:22.138Z,1.50
2023-02-04T04:45:50.760Z,0.80
2023-02-04T04:48:17.863Z,0.90
2023-02-04T04:50:45.254Z,1.05
2023-02-04T04:53:12.099Z,0.88
2023-02-04T04:55:39.180Z,1.02
2023-02-04T04:58:07.403Z,1.00
2023-02-04T05:00:35.058Z,1.20
2023-02-04T05:03:02.019Z,0.77
2023-02-04T05:05:28.764Z,1.00
2023-02-04T05:07:55.710Z,0.93
2023-02-04T05:10:22.579Z,1.15
2023-02-04T05:12:49.392Z,1.40
2023-02-04T05:15:16.317Z,1.00
2023-02-04T05:17:43.067Z,1.10
2023-02-04T05:20:10.301Z,0.90
2023-02-04T05:22:37.064Z,1.02
2023-02-04T05:25:04.062Z,1.05
2023-02-04T05:27:33.528Z,1.10
2023-02-04T05:30:00.400Z,1.10
2023-02-04T05:32:27.224Z,1.20
2023-02-04T05:34:54.058Z,1.20
2023-02-04T05:37:21.175Z,1.17
2023-02-04T05:39:48.124Z,1.25
2023-02-04T05:42:14.856Z,1.25
2023-02-04T05:44:41.614Z,2.22
2023-02-04T05:47:08.435Z,9.75
2023-02-04T05:49:35.789Z,2.50
2023-02-04T05:52:02.590Z,1.80
2023-02-04T05:54:29.517Z,1.73
2023-02-04T05:56:56.494Z,2.38
2023-02-04T05:59:23.364Z,1.65
2023-02-04T06:01:50.181Z,5.32
2023-02-04T06:04:17.293Z,1.38
2023-02-04T06:06:44.338Z,1.40
2023-02-04T06:09:11.161Z,1.40
2023-02-04T06:11:38.110Z,1.60
2023-02-04T06:14:05.038Z,35.78
2023-02-04T06:16:31.837Z,1.92
2023-02-04T06:18:58.636Z,2.92
2023-02-04T06:21:25.497Z,1.92
2023-02-04T06:23:52.264Z,2.10
2023-02-04T06:26:19.040Z,2.35
2023-02-04T06:28:45.982Z,3.10
2023-02-04T06:31:12.873Z,2.80
2023-02-04T06:33:39.794Z,1.83
2023-02-04T06:36:06.958Z,1.70
2023-02-04T06:38:33.866Z,3.38
2023-02-04T06:41:00.630Z,1.90
2023-02-04T06:43:28.122Z,1.70
2023-02-04T06:45:55.064Z,1.80
2023-02-04T06:48:21.953Z,1.70
2023-02-04T06:50:48.834Z,1.40
2023-02-04T06:53:15.770Z,1.92
2023-02-04T06:55:42.707Z,2.00
2023-02-04T06:58:09.878Z,2.20
2023-02-04T07:00:36.699Z,2.15
2023-02-04T07:03:03.628Z,1.88
2023-02-04T07:05:30.566Z,1.45
2023-02-04T07:07:57.332Z,2.70
2023-02-04T07:10:24.172Z,1.50
2023-02-04T07:12:50.995Z,1.50
2023-02-04T07:15:17.888Z,1.38
2023-02-04T07:17:45.090Z,1.77
2023-02-04T07:20:12.582Z,2.10
2023-02-04T07:22:39.406Z,2.13
2023-02-04T07:25:06.662Z,2.70
2023-02-04T07:27:33.427Z,1.70
2023-02-04T07:30:00.227Z,1.40
2023-02-04T07:32:27.989Z,1.63
2023-02-04T07:34:54.795Z,3.40
2023-02-04T07:37:23.011Z,5.20
2023-02-04T07:39:49.759Z,4.25
2023-02-04T07:42:16.536Z,5.40
2023-02-04T07:44:52.016Z,10.13
2023-02-04T07:47:18.801Z,11.68
2023-02-04T07:49:45.541Z,3.85
2023-02-04T07:52:12.488Z,3.45
2023-02-04T07:54:39.338Z,3.80
2023-02-04T07:57:06.121Z,3.13
2023-02-04T07:59:32.915Z,1.50
2023-02-04T08:02:00.012Z,1.50
2023-02-04T08:04:26.882Z,1.40
2023-02-04T08:06:53.641Z,2.25
2023-02-04T08:09:20.471Z,1.50
2023-02-04T08:11:47.226Z,1.67
2023-02-04T08:14:14.059Z,1.48
2023-02-04T08:16:40.854Z,1.40
2023-02-04T08:19:07.618Z,2.08
2023-02-04T08:21:34.459Z,2.33
2023-02-04T08:24:01.263Z,5.07
2023-02-04T08:26:28.012Z,5.65
2023-02-04T08:28:54.859Z,5.90
2023-02-04T08:31:21.703Z,3.10
2023-02-04T08:33:48.539Z,2.47
2023-02-04T08:36:15.338Z,3.03
2023-02-04T08:38:42.183Z,3.55
2023-02-04T08:41:09.066Z,5.05
2023-02-04T08:43:37.051Z,3.03
2023-02-04T08:46:04.106Z,4.03
2023-02-04T08:48:30.934Z,2.60
2023-02-04T08:50:57.734Z,3.60
2023-02-04T08:53:24.526Z,4.00
2023-02-04T08:55:51.368Z,2.83
2023-02-04T08:58:18.137Z,1.35
2023-02-04T09:00:45.026Z,1.98
2023-02-04T09:03:11.973Z,2.40
2023-02-04T09:05:38.778Z,1.58
2023-02-04T09:08:05.749Z,1.17
2023-02-04T09:10:32.806Z,2.10
2023-02-04T09:12:59.919Z,3.08
2023-02-04T09:15:26.865Z,3.13
2023-02-04T09:17:54.486Z,2.30
2023-02-04T09:20:21.866Z,2.20
2023-02-04T09:22:50.364Z,5.28
2023-02-04T09:25:17.127Z,7.72
2023-02-04T09:27:43.930Z,7.15
2023-02-04T09:30:11.275Z,4.97
2023-02-04T09:32:38.020Z,2.85
2023-02-04T09:35:05.318Z,2.00
2023-02-04T09:37:32.116Z,3.03
2023-02-04T09:39:58.906Z,1.40
2023-02-04T09:42:26.771Z,2.55
2023-02-04T09:44:53.771Z,3.33
2023-02-04T09:47:24.261Z,1.58
2023-02-04T09:49:51.860Z,2.63
2023-02-04T09:52:19.813Z,3.38
2023-02-04T09:54:46.775Z,3.58
2023-02-04T09:57:20.859Z,2.90
2023-02-04T09:59:47.814Z,4.05
2023-02-04T10:02:26.311Z,2.40
2023-02-04T10:04:57.709Z,2.47
2023-02-04T10:07:26.667Z,3.65
2023-02-04T10:09:54.960Z,2.80
2023-02-04T10:12:22.094Z,1.60
2023-02-04T10:14:49.773Z,2.03
2023-02-04T10:17:21.795Z,2.28
2023-02-04T10:19:48.731Z,1.67
2023-02-04T10:22:21.728Z,1.45
2023-02-04T10:24:48.717Z,1.90
2023-02-04T10:27:16.599Z,3.40
2023-02-04T10:29:54.817Z,3.55
2023-02-04T10:32:30.729Z,1.33
2023-02-04T10:35:00.144Z,2.70
2023-02-04T10:37:27.080Z,1.73
2023-02-04T10:39:54.072Z,1.90
2023-02-04T10:42:24.098Z,1.70
2023-02-04T10:44:51.755Z,1.70
2023-02-04T10:47:22.280Z,1.67
2023-02-04T10:49:54.553Z,2.00
2023-02-04T10:52:24.341Z,2.20
2023-02-04T10:54:51.211Z,4.10
2023-02-04T10:57:28.745Z,3.90
2023-02-04T10:59:59.304Z,4.10
2023-02-04T11:02:31.735Z,1.60
2023-02-04T11:04:58.776Z,2.58
2023-02-04T11:07:25.597Z,1.70
2023-02-04T11:09:52.533Z,2.05
2023-02-04T11:12:21.352Z,3.85
2023-02-04T11:14:56.310Z,4.10
2023-02-04T11:17:31.525Z,1.70
2023-02-04T11:19:58.447Z,2.75
2023-02-04T11:22:41.769Z,2.90
2023-02-04T11:25:39.717Z,2.85
2023-02-04T11:28:24.457Z,1.30
2023-02-04T11:31:02.618Z,2.30
2023-02-04T11:33:41.593Z,2.10
2023-02-04T11:36:12.144Z,1.10
2023-02-04T11:38:39.741Z,1.90
2023-02-04T11:41:06.648Z,0.95
2023-02-04T11:43:35.133Z,1.40
2023-02-04T11:46:17.454Z,1.00
2023-02-04T11:48:44.742Z,1.02
2023-02-04T11:51:17.293Z,1.00
2023-02-04T11:53:44.314Z,1.35
2023-02-04T11:56:22.060Z,1.00
2023-02-04T11:58:50.208Z,1.40
2023-02-04T12:01:22.052Z,4.78
2023-02-04T12:03:51.441Z,3.95
2023-02-04T12:06:22.647Z,1.40
2023-02-04T12:08:49.685Z,1.15
2023-02-04T12:11:30.471Z,1.50
2023-02-04T12:14:06.080Z,2.10
2023-02-04T12:16:48.983Z,0.95
2023-02-04T12:19:15.789Z,6.60
2023-02-04T12:21:42.566Z,3.10
2023-02-04T12:24:09.682Z,3.08
2023-02-04T12:26:36.461Z,2.17
2023-02-04T12:29:05.697Z,1.33
2023-02-04T12:31:33.349Z,1.77
2023-02-04T12:34:00.491Z,1.00
2023-02-04T12:36:27.966Z,1.58
2023-02-04T12:38:54.800Z,1.48
2023-02-04T12:41:21.913Z,1.30
2023-02-04T12:43:50.660Z,1.10
2023-02-04T12:46:18.316Z,1.08
2023-02-04T12:48:45.145Z,1.30
2023-02-04T12:51:12.038Z,1.17
2023-02-04T12:53:38.802Z,1.30
2023-02-04T12:56:06.178Z,1.55
2023-02-04T12:58:32.910Z,4.53
2023-02-04T13:00:59.718Z,6.50
2023-02-04T13:03:26.709Z,3.22
2023-02-04T13:05:53.486Z,3.17
2023-02-04T13:08:20.297Z,1.80
2023-02-04T13:10:52.002Z,3.10
2023-02-04T13:13:20.060Z,1.45
2023-02-04T13:15:46.978Z,1.25
2023-02-04T13:18:14.265Z,2.97
2023-02-04T13:20:42.549Z,10.45
2023-02-04T13:23:09.370Z,6.78
2023-02-04T13:25:36.109Z,15.45
2023-02-04T13:28:02.904Z,5.32
2023-02-04T13:30:29.739Z,2.40
2023-02-04T13:32:56.598Z,1.05
2023-02-04T13:35:23.434Z,1.45
2023-02-04T13:37:50.208Z,1.92
2023-02-04T13:40:17.098Z,1.48
2023-02-04T13:42:43.888Z,2.30
2023-02-04T13:45:12.725Z,1.52
2023-02-04T13:47:39.819Z,1.92
2023-02-04T13:50:07.452Z,1.10
2023-02-04T13:52:34.680Z,4.97
2023-02-04T13:55:01.550Z,4.97
2023-02-04T13:57:28.350Z,1.80
2023-02-04T13:59:55.143Z,2.08
2023-02-04T14:02:24.072Z,1.13
2023-02-04T14:04:51.240Z,1.13
2023-02-04T14:07:18.057Z,1.33
2023-02-04T14:09:44.868Z,1.60
2023-02-04T14:12:11.637Z,2.80
2023-02-04T14:14:38.407Z,1.40
2023-02-04T14:17:05.314Z,3.00
2023-02-04T14:19:32.619Z,1.10
2023-02-04T14:21:59.586Z,1.10
2023-02-04T14:24:26.535Z,1.80
2023-02-04T14:26:53.393Z,10.00
2023-02-04T14:29:20.257Z,3.78
2023-02-04T14:31:47.059Z,2.00
2023-02-04T14:34:13.905Z,1.80
2023-02-04T14:36:40.708Z,1.70
2023-02-04T14:39:07.512Z,1.30
2023-02-04T14:41:34.302Z,2.13
2023-02-04T14:44:01.018Z,1.10
2023-02-04T14:46:27.828Z,1.23
2023-02-04T14:48:54.793Z,1.10
2023-02-04T14:51:21.710Z,1.05
2023-02-04T14:53:48.961Z,1.27
2023-02-04T14:56:16.920Z,1.20
2023-02-04T14:58:43.800Z,1.45
2023-02-04T15:01:10.680Z,1.08
2023-02-04T15:03:37.805Z,1.35
2023-02-04T15:06:04.809Z,1.00
2023-02-04T15:08:32.995Z,1.50
2023-02-04T15:10:59.993Z,3.05
2023-02-04T15:13:28.092Z,1.90
2023-02-04T15:15:55.049Z,1.50
2023-02-04T15:18:22.019Z,1.30
2023-02-04T15:20:48.826Z,1.15
2023-02-04T15:23:15.591Z,1.02
2023-02-04T15:25:42.436Z,1.30
2023-02-04T15:28:11.910Z,1.20
2023-02-04T15:30:39.390Z,1.10
2023-02-04T15:33:06.152Z,1.02
2023-02-04T15:35:33.117Z,1.33
2023-02-04T15:38:00.280Z,1.20
2023-02-04T15:40:30.232Z,1.40
2023-02-04T15:42:57.683Z,1.33
2023-02-04T15:45:24.742Z,1.70
2023-02-04T15:47:51.669Z,1.60
2023-02-04T15:50:18.747Z,1.50
2023-02-04T15:52:45.622Z,1.77
2023-02-04T15:55:12.609Z,1.67
2023-02-04T15:57:39.678Z,1.63
2023-02-04T16:00:07.347Z,2.47
2023-02-04T16:02:34.210Z,5.93
2023-02-04T16:05:01.012Z,9.80
2023-02-04T16:07:27.884Z,14.07
2023-02-04T16:09:54.856Z,11.68
2023-02-04T16:12:21.640Z,11.82
2023-02-04T16:14:48.447Z,12.35
2023-02-04T16:17:15.373Z,11.55
2023-02-04T16:19:42.493Z,8.55
2023-02-04T16:22:09.413Z,5.28
2023-02-04T16:24:36.882Z,8.82
2023-02-04T16:27:03.838Z,9.57
2023-02-04T16:29:31.097Z,12.15
2023-02-04T16:31:58.100Z,5.85
2023-02-04T16:34:25.199Z,5.40
2023-02-04T16:36:52.214Z,8.13
2023-02-04T16:39:18.998Z,6.00
2023-02-04T16:41:45.820Z,5.90
2023-02-04T16:44:12.737Z,5.80
2023-02-04T16:46:39.585Z,5.65
2023-02-04T16:49:06.391Z,4.22
2023-02-04T16:51:33.225Z,5.28
2023-02-04T16:54:00.050Z,4.60
2023-02-04T16:56:35.055Z,6.93
2023-02-04T16:59:03.248Z,37.33
2023-02-04T17:01:30.902Z,162.95
2023-02-04T17:04:00.738Z,117.05
2023-02-04T17:06:29.496Z,74.35
2023-02-04T17:08:56.745Z,79.22
2023-02-04T17:11:29.817Z,57.15
2023-02-04T17:14:01.463Z,38.03
2023-02-04T17:16:29.820Z,12.43
2023-02-04T17:18:57.329Z,7.10
2023-02-04T17:21:26.012Z,7.68
2023-02-04T17:23:53.266Z,12.00
2023-02-04T17:26:20.122Z,14.85
2023-02-04T17:28:47.291Z,11.95
2023-02-04T17:31:14.323Z,10.65
2023-02-04T17:33:41.253Z,8.70
2023-02-04T17:36:08.857Z,6.63
2023-02-04T17:38:35.749Z,6.40
2023-02-04T17:41:02.806Z,6.85
2023-02-04T17:43:29.583Z,5.32
2023-02-04T17:45:56.350Z,6.18
2023-02-04T17:48:23.319Z,15.80
2023-02-04T17:50:50.187Z,9.52
2023-02-04T17:53:16.941Z,6.35
2023-02-04T17:55:43.796Z,4.97
2023-02-04T17:58:23.016Z,7.15
2023-02-04T18:00:50.932Z,8.40
2023-02-04T18:03:22.905Z,7.03
2023-02-04T18:05:52.327Z,10.80
2023-02-04T18:08:21.691Z,35.28
2023-02-04T18:10:50.542Z,12.90
2023-02-04T18:13:21.838Z,8.50
2023-02-04T18:15:54.884Z,7.45
2023-02-04T18:18:23.754Z,5.80
2023-02-04T18:21:14.722Z,8.00
2023-02-04T18:23:41.821Z,5.38
2023-02-04T18:26:16.633Z,5.18
2023-02-04T18:28:48.076Z,12.23
2023-02-04T18:31:35.618Z,11.50
2023-02-04T18:34:16.991Z,12.32
2023-02-04T18:36:43.863Z,13.25
2023-02-04T18:39:17.858Z,16.20
2023-02-04T18:44:32.791Z,23.20
2023-02-04T18:47:00.976Z,21.77
2023-02-04T18:49:34.149Z,18.50
2023-02-04T18:52:09.929Z,10.55
2023-02-04T18:54:37.786Z,12.73
2023-02-04T18:57:13.568Z,13.20
2023-02-04T18:59:41.342Z,14.18
2023-02-04T19:02:27.025Z,11.80
2023-02-04T19:05:12.008Z,10.40
2023-02-04T19:07:39.776Z,12.30
2023-02-04T19:10:26.903Z,14.15
2023-02-04T19:12:54.328Z,27.33
2023-02-04T19:15:36.520Z,12.98
2023-02-04T19:18:30.115Z,10.82
2023-02-04T19:21:08.164Z,10.65
2023-02-04T19:23:37.914Z,18.00
2023-02-04T19:26:25.115Z,11.65
2023-02-04T19:28:52.639Z,7.82
2023-02-04T19:31:19.633Z,8.40
2023-02-04T19:33:48.926Z,6.15
2023-02-04T19:36:39.972Z,5.20
2023-02-04T19:39:30.756Z,5.00
2023-02-04T19:41:58.286Z,5.72
2023-02-04T19:44:34.445Z,6.35
2023-02-04T19:47:22.609Z,6.40
2023-02-04T19:49:49.443Z,6.85
2023-02-04T19:52:36.959Z,10.63
2023-02-04T19:55:12.924Z,18.38
2023-02-04T19:57:39.694Z,16.88
2023-02-04T20:00:35.963Z,11.95
2023-02-04T20:03:14.541Z,13.20
2023-02-04T20:05:42.238Z,14.00
2023-02-04T20:08:35.102Z,10.45
2023-02-04T20:11:32.697Z,10.85
2023-02-04T20:14:14.583Z,11.90
2023-02-04T20:16:44.396Z,9.35
2023-02-04T20:19:30.180Z,8.20
2023-02-04T20:22:02.726Z,9.45
2023-02-04T20:24:39.652Z,11.48
2023-02-04T20:27:23.595Z,10.00
2023-02-04T20:29:59.103Z,10.27
2023-02-04T20:32:27.709Z,11.82
2023-02-04T20:35:21.498Z,12.07
2023-02-04T20:37:57.794Z,11.60
2023-02-04T20:40:35.864Z,13.43
2023-02-04T20:43:12.328Z,11.23
2023-02-04T20:45:56.337Z,12.00
2023-02-04T20:50:59.103Z,22.48
2023-02-04T20:53:40.084Z,22.17
2023-02-04T20:56:24.393Z,15.57
2023-02-04T20:59:03.031Z,12.18
2023-02-04T21:01:34.205Z,15.57
2023-02-04T21:04:23.180Z,10.77
2023-02-04T21:06:51.724Z,9.40
2023-02-04T21:09:23.705Z,12.30
2023-02-04T21:11:51.813Z,12.05
2023-02-04T21:14:18.661Z,9.05
2023-02-04T21:16:45.674Z,8.88
2023-02-04T21:19:12.807Z,8.45
2023-02-04T21:21:39.621Z,7.55
2023-02-04T21:24:07.278Z,7.20
2023-02-04T21:26:34.346Z,6.15
2023-02-04T21:29:01.311Z,6.07
2023-02-04T21:31:28.142Z,6.30
2023-02-04T21:33:55.188Z,6.93
2023-02-04T21:36:24.324Z,10.73
2023-02-04T21:38:51.137Z,10.23
2023-02-04T21:41:20.468Z,9.98
2023-02-04T21:43:48.216Z,7.90
2023-02-04T21:46:15.959Z,7.03
2023-02-04T21:48:43.790Z,6.93
2023-02-04T21:51:11.865Z,6.63
2023-02-04T21:53:39.173Z,5.72
2023-02-04T21:56:07.599Z,5.40
2023-02-04T21:58:34.673Z,5.32
2023-02-04T22:01:01.895Z,5.10
2023-02-04T22:03:28.826Z,6.35
2023-02-04T22:05:55.666Z,5.60
2023-02-04T22:08:22.633Z,5.90
2023-02-04T22:10:49.388Z,5.97
2023-02-04T22:13:34.554Z,5.10
2023-02-04T22:16:01.513Z,5.30
2023-02-04T22:18:28.564Z,5.80
2023-02-04T22:20:55.376Z,5.82
2023-02-04T22:23:22.204Z,5.80
2023-02-04T22:25:48.994Z,5.90
2023-02-04T22:28:16.006Z,6.60
2023-02-04T22:30:42.868Z,7.68
2023-02-04T22:33:11.487Z,7.40
2023-02-04T22:35:38.385Z,7.68
2023-02-04T22:38:05.372Z,8.52
2023-02-04T22:40:32.131Z,9.32
2023-02-04T22:43:00.007Z,8.88
2023-02-04T22:45:26.838Z,8.55
2023-02-04T22:47:53.729Z,8.60
2023-02-04T22:50:20.517Z,8.70
2023-02-04T22:52:47.429Z,8.02
2023-02-04T22:55:14.208Z,8.63
2023-02-04T22:57:40.993Z,7.88
2023-02-04T23:00:09.523Z,7.90
2023-02-04T23:02:36.418Z,7.57
2023-02-04T23:05:04.355Z,7.68
2023-02-04T23:07:32.052Z,7.88
2023-02-04T23:09:58.940Z,8.90
2023-02-04T23:12:25.961Z,9.57
2023-02-04T23:14:52.786Z,11.35
2023-02-04T23:17:19.761Z,11.80
2023-02-04T23:19:46.504Z,11.23
2023-02-04T23:22:14.681Z,9.70
2023-02-04T23:24:42.474Z,9.93
2023-02-04T23:27:11.517Z,8.90
2023-02-04T23:29:39.708Z,8.18
2023-02-04T23:32:07.124Z,8.55
2023-02-04T23:34:34.184Z,8.52
2023-02-04T23:37:01.305Z,9.45
2023-02-04T23:39:28.252Z,8.55
2023-02-04T23:41:55.091Z,8.02
2023-02-04T23:44:22.268Z,7.95
2023-02-04T23:46:49.050Z,7.57
2023-02-04T23:49:15.965Z,6.78
2023-02-04T23:51:42.841Z,6.55
2023-02-04T23:54:09.791Z,6.22
2023-02-04T23:56:36.615Z,6.35
2023-02-04T23:59:04.480Z,7.13
